Time;durP1;ratioP1;P1;durP2;ratioP2;P2;SDS_P1;SDS_P2;PMS_P1;PMS_P2;Temp;Humidity;BMP_temperature;BMP_pressure;BME280_temperature;BME280_humidity;BME280_pressure;Samples;Min_cycle;Max_cycle;Signal;HPM_P1;HPM_P2
2022/05/12 00:01:07;;;;;;;;;;;25.10;91.30;;;;;;5033492;28;19929;-61
2022/05/12 00:03:35;;;;;;;;;;;25.00;91.40;;;;;;5046778;28;19925;-61
2022/05/12 00:06:03;;;;;;;;;;;25.00;91.50;;;;;;5026370;28;19929;-61
2022/05/12 00:08:31;;;;;;;;;;;25.00;91.70;;;;;;5033145;28;19936;-60
2022/05/12 00:10:58;;;;;;;;;;;25.10;91.70;;;;;;5042735;28;19943;-61
2022/05/12 00:13:25;;;;;;;;;;;25.10;91.60;;;;;;5040640;28;19932;-60
2022/05/12 00:15:54;;;;;;;;;;;25.00;91.60;;;;;;5038763;28;19929;-61
2022/05/12 00:18:22;;;;;;;;;;;25.00;92.10;;;;;;5028818;28;19929;-60
2022/05/12 00:20:49;;;;;;;;;;;25.00;91.80;;;;;;5042602;28;19944;-61
2022/05/12 00:23:16;;;;;;;;;;;25.00;92.10;;;;;;5049950;28;20416;-60
2022/05/12 00:25:45;;;;;;;;;;;25.00;92.10;;;;;;5032001;28;20032;-60
2022/05/12 00:28:12;;;;;;;;;;;25.00;92.20;;;;;;5046074;28;19965;-60
2022/05/12 00:30:40;;;;;;;;;;;24.90;92.30;;;;;;5039367;28;19962;-60
2022/05/12 00:33:08;;;;;;;;;;;25.00;92.10;;;;;;5011242;28;19929;-60
2022/05/12 00:35:40;;;;;;;;;;;25.00;92.00;;;;;;5045540;28;19940;-61
2022/05/12 00:38:08;;;;;;;;;;;25.00;92.40;;;;;;5042125;28;19944;-60
2022/05/12 00:40:35;;;;;;;;;;;25.00;91.90;;;;;;5046950;28;19936;-59
2022/05/12 00:43:04;;;;;;;;;;;25.00;92.00;;;;;;5046293;28;20119;-65
2022/05/12 00:45:35;;;;;;;;;;;24.90;92.10;;;;;;5050789;28;19939;-61
2022/05/12 00:48:03;;;;;;;;;;;24.90;92.40;;;;;;5038284;28;19929;-60
2022/05/12 00:50:33;;;;;;;;;;;24.90;92.30;;;;;;5038161;28;19936;-61
2022/05/12 00:53:01;;;;;;;;;;;24.90;92.00;;;;;;5045512;28;19928;-60
2022/05/12 00:55:31;;;;;;;;;;;24.90;92.10;;;;;;5041442;28;19947;-61
2022/05/12 00:58:00;;;;;;;;;;;24.90;92.40;;;;;;5043135;28;19932;-60
2022/05/12 01:00:27;;;;;;;;;;;24.90;92.20;;;;;;5048861;28;19928;-58
2022/05/12 01:02:56;;;;;;;;;;;25.00;92.30;;;;;;5043933;28;19929;-60
2022/05/12 01:05:24;;;;;;;;;;;24.90;92.30;;;;;;5040227;28;19944;-60
2022/05/12 01:07:55;;;;;;;;;;;24.90;92.10;;;;;;5044275;28;19933;-59
2022/05/12 01:10:23;;;;;;;;;;;24.90;92.30;;;;;;5031230;28;19936;-57
2022/05/12 01:12:50;;;;;;;;;;;24.90;92.30;;;;;;5046004;28;19932;-59
2022/05/12 01:15:18;;;;;;;;;;;24.90;92.50;;;;;;5051417;28;19947;-61
2022/05/12 01:17:46;;;;;;;;;;;24.90;92.50;;;;;;5054810;28;20045;-61
2022/05/12 01:20:13;;;;;;;;;;;24.90;92.50;;;;;;5046753;28;20257;-62
2022/05/12 01:23:19;;;;;;;;;;;24.90;92.30;;;;;;5013519;28;19926;-58
2022/05/12 01:25:46;;;;;;;;;;;24.90;92.40;;;;;;4998060;28;19926;-60
2022/05/12 01:28:13;;;;;;;;;;;24.90;92.30;;;;;;5000908;28;19932;-59
2022/05/12 01:30:41;;;;;;;;;;;24.90;92.40;;;;;;5004688;28;19932;-59
2022/05/12 01:33:08;;;;;;;;;;;24.80;92.30;;;;;;5002800;28;19929;-59
2022/05/12 01:35:35;;;;;;;;;;;24.80;92.40;;;;;;4999059;28;19926;-60
2022/05/12 01:38:02;;;;;;;;;;;24.80;92.40;;;;;;4999744;28;20420;-60
2022/05/12 01:40:29;;;;;;;;;;;24.80;92.50;;;;;;5002244;28;19930;-59
2022/05/12 01:42:56;;;;;;;;;;;24.80;92.70;;;;;;4996220;28;19926;-59
2022/05/12 01:45:23;;;;;;;;;;;24.80;92.70;;;;;;5001115;28;19937;-57
2022/05/12 01:47:51;;;;;;;;;;;24.80;92.90;;;;;;5001599;28;19933;-60
2022/05/12 01:50:19;;;;;;;;;;;24.80;92.50;;;;;;4999592;28;19945;-61
2022/05/12 01:52:46;;;;;;;;;;;24.80;92.50;;;;;;4999305;28;19925;-60
2022/05/12 01:55:15;;;;;;;;;;;24.80;92.60;;;;;;4997632;28;19945;-60
2022/05/12 01:57:43;;;;;;;;;;;24.80;92.70;;;;;;5034222;28;19933;-60
2022/05/12 02:00:15;;;;;;;;;;;24.80;92.80;;;;;;5032748;28;19936;-58
2022/05/12 02:02:42;;;;;;;;;;;24.80;92.70;;;;;;5026010;28;19947;-59
2022/05/12 02:05:10;;;;;;;;;;;24.80;92.80;;;;;;5045529;28;19951;-60
2022/05/12 02:07:39;;;;;;;;;;;24.80;93.00;;;;;;5039296;28;19932;-58
2022/05/12 02:10:08;;;;;;;;;;;24.80;93.10;;;;;;5036751;28;19937;-62
2022/05/12 02:12:35;;;;;;;;;;;24.70;92.90;;;;;;5040656;28;19936;-60
2022/05/12 02:15:02;;;;;;;;;;;24.70;93.20;;;;;;5047215;28;19935;-61
2022/05/12 02:17:30;;;;;;;;;;;24.80;93.40;;;;;;5046414;28;19933;-59
2022/05/12 02:19:57;;;;;;;;;;;24.70;93.40;;;;;;5046796;28;19939;-61
2022/05/12 02:22:24;;;;;;;;;;;24.70;93.50;;;;;;5039336;28;20416;-60
2022/05/12 02:24:51;;;;;;;;;;;24.80;93.70;;;;;;5043777;28;19944;-60
2022/05/12 02:27:20;;;;;;;;;;;24.70;93.80;;;;;;5043210;28;19933;-59
2022/05/12 02:29:47;;;;;;;;;;;24.70;93.70;;;;;;5039633;28;19936;-60
2022/05/12 02:32:14;;;;;;;;;;;24.70;93.90;;;;;;5042060;28;19937;-58
2022/05/12 02:34:41;;;;;;;;;;;24.70;94.10;;;;;;5029713;28;19924;-58
2022/05/12 02:37:08;;;;;;;;;;;24.80;94.10;;;;;;5032338;28;19929;-61
2022/05/12 02:39:36;;;;;;;;;;;24.80;94.20;;;;;;5041798;28;19951;-61
2022/05/12 02:42:04;;;;;;;;;;;24.80;94.10;;;;;;5045767;28;19929;-60
2022/05/12 02:44:32;;;;;;;;;;;24.80;94.10;;;;;;5042364;28;19944;-60
2022/05/12 02:46:59;;;;;;;;;;;24.80;94.10;;;;;;5045945;28;19936;-61
2022/05/12 02:49:26;;;;;;;;;;;24.80;94.30;;;;;;5031139;28;19925;-60
2022/05/12 02:51:53;;;;;;;;;;;24.80;94.10;;;;;;5052986;28;19931;-61
2022/05/12 02:54:21;;;;;;;;;;;24.80;94.00;;;;;;5040601;28;20280;-61
2022/05/12 02:56:49;;;;;;;;;;;24.80;94.00;;;;;;5042082;28;19939;-60
2022/05/12 02:59:17;;;;;;;;;;;24.80;94.00;;;;;;5053216;28;20156;-61
2022/05/12 03:01:44;;;;;;;;;;;24.80;93.70;;;;;;5047675;28;19939;-61
2022/05/12 03:04:11;;;;;;;;;;;24.80;93.70;;;;;;5025214;28;20411;-60
2022/05/12 03:06:39;;;;;;;;;;;24.70;93.80;;;;;;5048349;28;19939;-59
2022/05/12 03:09:06;;;;;;;;;;;24.80;93.70;;;;;;5047404;28;19928;-60
2022/05/12 03:11:33;;;;;;;;;;;24.80;93.70;;;;;;5041048;28;19939;-60
2022/05/12 03:14:00;;;;;;;;;;;24.80;93.80;;;;;;5045873;28;19940;-59
2022/05/12 03:16:27;;;;;;;;;;;24.80;93.70;;;;;;5045017;28;19929;-59
2022/05/12 03:18:55;;;;;;;;;;;24.70;93.70;;;;;;5030527;28;19929;-60
2022/05/12 03:21:22;;;;;;;;;;;24.70;93.70;;;;;;5050504;28;19935;-60
2022/05/12 03:23:50;;;;;;;;;;;24.80;93.70;;;;;;5056455;28;19931;-60
2022/05/12 03:26:17;;;;;;;;;;;24.70;93.70;;;;;;5047621;28;20400;-61
2022/05/12 03:28:44;;;;;;;;;;;24.70;93.70;;;;;;5046292;28;19924;-58
2022/05/12 03:31:12;;;;;;;;;;;24.70;93.70;;;;;;5050026;28;19947;-60
2022/05/12 03:33:39;;;;;;;;;;;24.70;93.70;;;;;;5044276;28;19928;-60
2022/05/12 03:36:07;;;;;;;;;;;24.70;93.70;;;;;;5044608;28;19940;-59
2022/05/12 03:38:34;;;;;;;;;;;24.70;93.70;;;;;;5024939;28;20313;-60
2022/05/12 03:41:02;;;;;;;;;;;24.70;93.70;;;;;;5049774;28;19933;-59
2022/05/12 03:46:14;;;;;;;;;;;24.70;93.60;;;;;;5049403;28;19933;-61
2022/05/12 03:48:42;;;;;;;;;;;24.70;93.60;;;;;;5041938;28;19932;-59
2022/05/12 03:51:09;;;;;;;;;;;24.70;93.70;;;;;;5043694;28;19936;-60
2022/05/12 03:53:36;;;;;;;;;;;24.60;93.60;;;;;;5049258;28;19928;-60
2022/05/12 03:56:05;;;;;;;;;;;24.60;93.60;;;;;;5060874;28;19928;-61
2022/05/12 03:58:32;;;;;;;;;;;24.70;93.60;;;;;;5059758;28;19951;-60
2022/05/12 04:01:00;;;;;;;;;;;24.70;93.60;;;;;;5044120;28;20396;-62
2022/05/12 04:03:27;;;;;;;;;;;24.70;93.60;;;;;;5039635;28;19939;-60
2022/05/12 04:05:55;;;;;;;;;;;24.70;93.70;;;;;;5046823;28;19939;-62
2022/05/12 04:08:22;;;;;;;;;;;24.70;93.70;;;;;;5028975;28;19928;-61
2022/05/12 04:10:51;;;;;;;;;;;24.70;93.70;;;;;;5045793;28;19925;-61
2022/05/12 04:13:18;;;;;;;;;;;24.70;93.70;;;;;;5056336;28;19929;-60
2022/05/12 04:15:46;;;;;;;;;;;24.60;93.90;;;;;;5058349;28;19939;-60
2022/05/12 04:18:13;;;;;;;;;;;24.60;92.70;;;;;;5056206;28;19939;-58
2022/05/12 04:20:40;;;;;;;;;;;24.60;92.70;;;;;;5059917;28;19932;-60
2022/05/12 04:23:08;;;;;;;;;;;24.60;91.50;;;;;;5054836;28;19928;-62
2022/05/12 04:25:35;;;;;;;;;;;24.60;92.00;;;;;;5047651;28;19928;-60
2022/05/12 04:28:03;;;;;;;;;;;24.50;91.20;;;;;;5033809;28;20473;-61
2022/05/12 04:30:31;;;;;;;;;;;24.50;91.30;;;;;;5051097;28;19947;-61
2022/05/12 04:35:09;;;;;;;;;;;24.50;91.10;;;;;;5049439;28;19936;-62
2022/05/12 04:35:45;;;;;;;;;;;24.50;90.50;;;;;;5049709;28;19933;-61
2022/05/12 04:38:13;;;;;;;;;;;24.40;90.60;;;;;;5045208;28;19933;-62
2022/05/12 04:40:40;;;;;;;;;;;24.40;89.40;;;;;;5051901;28;19929;-62
2022/05/12 04:43:07;;;;;;;;;;;24.30;88.40;;;;;;5050025;28;20328;-61
2022/05/12 04:45:34;;;;;;;;;;;24.30;88.40;;;;;;5054400;28;19924;-61
2022/05/12 04:48:03;;;;;;;;;;;24.30;88.80;;;;;;5042834;28;19928;-61
2022/05/12 04:50:31;;;;;;;;;;;24.30;90.10;;;;;;5044700;28;19928;-58
2022/05/12 04:52:58;;;;;;;;;;;24.40;90.20;;;;;;5044533;28;19936;-61
2022/05/12 04:55:26;;;;;;;;;;;24.40;90.20;;;;;;5042006;28;19947;-60
2022/05/12 04:57:55;;;;;;;;;;;24.40;90.60;;;;;;5048110;28;19925;-60
2022/05/12 05:00:25;;;;;;;;;;;24.40;90.70;;;;;;5045052;28;19929;-60
2022/05/12 05:02:52;;;;;;;;;;;24.40;91.20;;;;;;5045634;28;19929;-60
2022/05/12 05:05:19;;;;;;;;;;;24.40;91.80;;;;;;5052178;28;19971;-61
2022/05/12 05:07:47;;;;;;;;;;;24.40;92.10;;;;;;5037466;28;19928;-61
2022/05/12 05:10:14;;;;;;;;;;;24.50;92.20;;;;;;5047153;28;19947;-61
2022/05/12 05:12:41;;;;;;;;;;;24.50;92.10;;;;;;5049414;28;20032;-57
2022/05/12 05:15:10;;;;;;;;;;;24.40;91.60;;;;;;5051775;28;20309;-60
2022/05/12 05:17:39;;;;;;;;;;;24.40;91.90;;;;;;5038549;28;19943;-61
2022/05/12 05:20:08;;;;;;;;;;;24.40;91.90;;;;;;5034168;28;20408;-59
2022/05/12 05:22:36;;;;;;;;;;;24.40;91.90;;;;;;5031474;28;19929;-57
2022/05/12 05:25:03;;;;;;;;;;;24.40;92.20;;;;;;5044939;28;19950;-58
2022/05/12 05:27:30;;;;;;;;;;;24.40;92.10;;;;;;5044938;28;20000;-59
2022/05/12 05:29:58;;;;;;;;;;;24.50;92.20;;;;;;5050463;28;19936;-59
2022/05/12 05:32:27;;;;;;;;;;;24.50;92.30;;;;;;5029002;28;19925;-59
2022/05/12 05:34:55;;;;;;;;;;;24.50;92.40;;;;;;5033379;28;19955;-57
2022/05/12 05:37:22;;;;;;;;;;;24.50;92.50;;;;;;5054828;28;19929;-58
2022/05/12 05:39:49;;;;;;;;;;;24.50;92.50;;;;;;5059302;28;20272;-56
2022/05/12 05:42:18;;;;;;;;;;;24.50;91.10;;;;;;5056183;28;19924;-57
2022/05/12 05:44:46;;;;;;;;;;;24.20;89.90;;;;;;5047817;28;19939;-55
2022/05/12 05:47:13;;;;;;;;;;;24.10;89.80;;;;;;5049420;28;20289;-59
2022/05/12 05:49:41;;;;;;;;;;;24.00;88.90;;;;;;5039924;28;19924;-56
2022/05/12 05:54:55;;;;;;;;;;;23.80;88.40;;;;;;5053933;28;19928;-58
2022/05/12 05:57:26;;;;;;;;;;;23.80;88.40;;;;;;5039799;28;20395;-62
2022/05/12 05:59:56;;;;;;;;;;;23.90;90.00;;;;;;5048450;28;19932;-61
2022/05/12 06:02:23;;;;;;;;;;;24.00;90.40;;;;;;5037698;28;19928;-61
2022/05/12 06:04:50;;;;;;;;;;;24.10;90.50;;;;;;5051305;28;20339;-63
2022/05/12 06:07:18;;;;;;;;;;;24.20;90.60;;;;;;5046045;28;19928;-62
2022/05/12 06:09:45;;;;;;;;;;;24.30;90.90;;;;;;5053895;28;20374;-58
2022/05/12 06:12:12;;;;;;;;;;;24.30;91.00;;;;;;5054110;28;19960;-61
2022/05/12 06:14:39;;;;;;;;;;;24.40;91.10;;;;;;5052709;28;19933;-61
2022/05/12 06:17:06;;;;;;;;;;;24.50;91.40;;;;;;5057569;28;19935;-61
2022/05/12 06:19:34;;;;;;;;;;;24.50;91.60;;;;;;5059580;28;19925;-62
2022/05/12 06:22:02;;;;;;;;;;;24.50;91.70;;;;;;5046371;28;19944;-62
2022/05/12 06:24:29;;;;;;;;;;;24.60;91.90;;;;;;5013132;28;19932;-60
2022/05/12 06:26:56;;;;;;;;;;;24.60;92.10;;;;;;5036960;28;19944;-61
2022/05/12 06:29:23;;;;;;;;;;;24.60;92.20;;;;;;5044828;28;19931;-62
2022/05/12 06:31:51;;;;;;;;;;;24.70;92.20;;;;;;5048515;28;19933;-63
2022/05/12 06:34:18;;;;;;;;;;;24.70;92.20;;;;;;5034074;28;19930;-60
2022/05/12 06:36:45;;;;;;;;;;;24.60;92.20;;;;;;5037771;28;19995;-58
2022/05/12 06:39:12;;;;;;;;;;;24.60;91.80;;;;;;5045212;28;20298;-57
2022/05/12 06:41:40;;;;;;;;;;;24.50;90.90;;;;;;5034426;28;19929;-57
2022/05/12 06:44:07;;;;;;;;;;;24.30;90.80;;;;;;5035652;28;19929;-58
2022/05/12 06:46:34;;;;;;;;;;;24.20;89.30;;;;;;5041266;28;19933;-58
2022/05/12 06:49:03;;;;;;;;;;;24.10;89.10;;;;;;5042426;28;19952;-59
2022/05/12 06:51:30;;;;;;;;;;;24.00;87.70;;;;;;5037442;28;19937;-58
2022/05/12 06:53:57;;;;;;;;;;;24.00;88.90;;;;;;5052470;28;19936;-62
2022/05/12 06:56:25;;;;;;;;;;;24.00;88.70;;;;;;5041794;28;20201;-60
2022/05/12 06:58:52;;;;;;;;;;;24.00;87.80;;;;;;5038572;28;19928;-65
2022/05/12 07:01:20;;;;;;;;;;;24.00;88.50;;;;;;5029265;28;20695;-62
2022/05/12 07:03:48;;;;;;;;;;;24.00;88.30;;;;;;5043436;28;19933;-61
2022/05/12 07:06:16;;;;;;;;;;;24.10;88.60;;;;;;5044064;28;19928;-62
2022/05/12 07:08:43;;;;;;;;;;;24.20;88.60;;;;;;5047117;28;19936;-60
2022/05/12 07:11:11;;;;;;;;;;;24.30;88.60;;;;;;5044827;28;19929;-63
2022/05/12 07:13:39;;;;;;;;;;;24.30;88.60;;;;;;5034824;28;19936;-64
2022/05/12 07:16:07;;;;;;;;;;;24.30;88.70;;;;;;5045197;28;19968;-61
2022/05/12 07:18:34;;;;;;;;;;;24.40;88.80;;;;;;5050028;28;19933;-62
2022/05/12 07:26:49;;;;;;;;;;;24.40;88.60;;;;;;5047834;28;20003;-62
2022/05/12 07:29:19;;;;;;;;;;;24.40;88.70;;;;;;5060666;28;19928;-60
2022/05/12 07:31:49;;;;;;;;;;;24.50;88.60;;;;;;5054762;28;20288;-58
2022/05/12 07:34:18;;;;;;;;;;;24.50;88.70;;;;;;5047417;28;20011;-59
2022/05/12 07:36:50;;;;;;;;;;;24.50;88.80;;;;;;5033506;28;20404;-59
2022/05/12 07:39:18;;;;;;;;;;;24.50;88.70;;;;;;5040558;28;19935;-60
2022/05/12 07:41:45;;;;;;;;;;;24.50;88.70;;;;;;5036718;28;19936;-59
2022/05/12 07:44:19;;;;;;;;;;;24.50;88.60;;;;;;5058513;28;19929;-62
2022/05/12 07:46:47;;;;;;;;;;;24.50;88.60;;;;;;5058039;28;20041;-62
2022/05/12 07:49:14;;;;;;;;;;;24.50;88.50;;;;;;5061071;28;19925;-61
2022/05/12 07:51:48;;;;;;;;;;;24.50;88.60;;;;;;5045740;28;19940;-59
2022/05/12 07:54:15;;;;;;;;;;;24.60;88.80;;;;;;5043697;28;19928;-62
2022/05/12 07:56:42;;;;;;;;;;;24.60;88.90;;;;;;5042728;28;19933;-60
2022/05/12 07:59:09;;;;;;;;;;;24.60;89.40;;;;;;5039193;28;19933;-61
2022/05/12 08:01:38;;;;;;;;;;;24.60;89.60;;;;;;5048542;28;19929;-64
2022/05/12 08:04:05;;;;;;;;;;;24.60;89.60;;;;;;5034677;28;19932;-65
2022/05/12 08:06:33;;;;;;;;;;;24.60;89.70;;;;;;5051094;28;20471;-63
2022/05/12 08:09:01;;;;;;;;;;;24.60;89.80;;;;;;5043561;28;20388;-62
2022/05/12 08:11:28;;;;;;;;;;;24.60;90.10;;;;;;5054818;28;19932;-63
2022/05/12 08:13:56;;;;;;;;;;;24.60;90.10;;;;;;5050120;28;19939;-63
2022/05/12 08:16:23;;;;;;;;;;;24.60;90.30;;;;;;5050050;28;20320;-60
2022/05/12 08:18:50;;;;;;;;;;;24.60;90.20;;;;;;5044462;28;19955;-62
2022/05/12 08:21:18;;;;;;;;;;;24.60;90.40;;;;;;5055062;28;19928;-65
2022/05/12 08:23:47;;;;;;;;;;;24.70;90.50;;;;;;5026463;28;21299;-59
2022/05/12 08:26:14;;;;;;;;;;;24.70;90.60;;;;;;5059054;28;19939;-60
2022/05/12 08:28:42;;;;;;;;;;;24.70;90.60;;;;;;5053299;28;19929;-59
2022/05/12 08:31:10;;;;;;;;;;;24.70;90.70;;;;;;5053368;28;19956;-59
2022/05/12 08:33:38;;;;;;;;;;;24.70;90.60;;;;;;5046855;28;20428;-58
2022/05/12 08:36:05;;;;;;;;;;;24.70;90.80;;;;;;5061250;28;19935;-58
2022/05/12 08:38:34;;;;;;;;;;;24.70;90.80;;;;;;5049772;28;19933;-62
2022/05/12 08:41:09;;;;;;;;;;;24.70;91.10;;;;;;5049856;28;19933;-60
2022/05/12 08:43:45;;;;;;;;;;;24.70;91.10;;;;;;5051327;28;20183;-63
2022/05/12 08:46:21;;;;;;;;;;;24.80;91.00;;;;;;5058453;28;20424;-61
2022/05/12 08:48:51;;;;;;;;;;;24.80;91.10;;;;;;5041798;28;19944;-62
2022/05/12 08:51:19;;;;;;;;;;;24.80;91.10;;;;;;5044921;28;19928;-59
2022/05/12 08:53:55;;;;;;;;;;;24.80;91.20;;;;;;5055324;28;20379;-61
2022/05/12 08:56:23;;;;;;;;;;;24.80;91.30;;;;;;5053480;28;19939;-59
2022/05/12 08:58:53;;;;;;;;;;;24.80;91.50;;;;;;5054690;28;19936;-60
2022/05/12 09:01:36;;;;;;;;;;;24.80;91.20;;;;;;5047811;28;19925;-61
2022/05/12 09:04:07;;;;;;;;;;;24.80;91.30;;;;;;5050543;28;20371;-60
2022/05/12 09:06:39;;;;;;;;;;;24.80;91.30;;;;;;5043758;28;19933;-59
2022/05/12 09:09:25;;;;;;;;;;;24.70;91.20;;;;;;5050515;28;19976;-60
2022/05/12 09:11:57;;;;;;;;;;;24.70;91.20;;;;;;5033683;28;19936;-60
2022/05/12 09:14:42;;;;;;;;;;;24.80;91.30;;;;;;5036619;28;20265;-58
2022/05/12 09:17:15;;;;;;;;;;;24.70;91.20;;;;;;5050658;28;19956;-59
2022/05/12 09:19:42;;;;;;;;;;;24.70;91.10;;;;;;5056416;28;19955;-60
2022/05/12 09:22:10;;;;;;;;;;;24.70;91.10;;;;;;5047381;28;19952;-62
2022/05/12 09:24:38;;;;;;;;;;;24.70;91.10;;;;;;5046282;28;19928;-62
2022/05/12 09:27:07;;;;;;;;;;;24.70;91.10;;;;;;5044935;28;19925;-59
2022/05/12 09:29:54;;;;;;;;;;;24.70;91.20;;;;;;5047312;28;19928;-61
2022/05/12 09:32:31;;;;;;;;;;;24.70;91.30;;;;;;5040338;28;19935;-61
2022/05/12 09:35:07;;;;;;;;;;;24.70;91.30;;;;;;5034896;28;19936;-60
2022/05/12 09:37:36;;;;;;;;;;;24.70;91.30;;;;;;5055404;28;19925;-61
2022/05/12 09:40:13;;;;;;;;;;;24.70;91.40;;;;;;5045069;28;19929;-60
2022/05/12 09:42:45;;;;;;;;;;;24.80;91.70;;;;;;5026155;28;19929;-63
2022/05/12 09:45:15;;;;;;;;;;;24.60;91.00;;;;;;5056291;28;19932;-63
2022/05/12 09:47:43;;;;;;;;;;;24.50;90.40;;;;;;5041321;28;19936;-60
2022/05/12 09:50:21;;;;;;;;;;;24.50;89.20;;;;;;5047384;28;19948;-58
2022/05/12 09:52:55;;;;;;;;;;;24.50;88.80;;;;;;5039649;28;20002;-55
2022/05/12 09:55:30;;;;;;;;;;;24.50;87.60;;;;;;5049768;28;20380;-59
2022/05/12 09:57:59;;;;;;;;;;;24.50;87.80;;;;;;5044023;28;20375;-59
2022/05/12 10:00:38;;;;;;;;;;;24.30;83.40;;;;;;5047334;28;19933;-59
2022/05/12 10:08:45;;;;;;;;;;;24.20;83.90;;;;;;5046642;28;19933;-63
2022/05/12 10:11:13;;;;;;;;;;;24.30;83.50;;;;;;5032798;28;19933;-58
2022/05/12 10:13:53;;;;;;;;;;;24.10;80.40;;;;;;5044128;28;20331;-59
2022/05/12 10:16:25;;;;;;;;;;;24.10;81.40;;;;;;5050879;28;19936;-60
2022/05/12 10:18:54;;;;;;;;;;;24.00;80.50;;;;;;5043900;28;19939;-58
2022/05/12 10:21:23;;;;;;;;;;;24.00;81.60;;;;;;5051199;28;19928;-59
2022/05/12 10:23:59;;;;;;;;;;;24.20;82.80;;;;;;5048668;28;19935;-59
2022/05/12 10:26:26;;;;;;;;;;;24.40;83.50;;;;;;5051680;28;19925;-62
2022/05/12 10:28:59;;;;;;;;;;;24.50;84.10;;;;;;5037384;28;19925;-60
2022/05/12 10:31:34;;;;;;;;;;;24.60;85.00;;;;;;5045868;28;20293;-61
2022/05/12 10:34:05;;;;;;;;;;;24.60;85.70;;;;;;5047519;28;19932;-63
2022/05/12 10:36:49;;;;;;;;;;;24.60;86.50;;;;;;5051259;28;19939;-60
2022/05/12 10:39:35;;;;;;;;;;;24.60;86.70;;;;;;5046334;28;19933;-58
2022/05/12 10:42:16;;;;;;;;;;;24.60;87.50;;;;;;5042481;28;19929;-56
2022/05/12 10:44:43;;;;;;;;;;;24.60;88.10;;;;;;5041757;28;19952;-63
2022/05/12 10:47:38;;;;;;;;;;;24.60;88.00;;;;;;5046229;28;19933;-58
2022/05/12 10:50:11;;;;;;;;;;;24.70;88.50;;;;;;5038904;28;19925;-58
2022/05/12 10:52:47;;;;;;;;;;;24.60;88.30;;;;;;5039051;28;19932;-61
2022/05/12 10:55:28;;;;;;;;;;;24.70;89.50;;;;;;5039364;28;20364;-59
2022/05/12 10:57:59;;;;;;;;;;;24.70;89.80;;;;;;5040308;28;20399;-58
2022/05/12 11:00:42;;;;;;;;;;;24.70;89.90;;;;;;5034946;28;19937;-59
2022/05/12 11:03:14;;;;;;;;;;;24.70;90.30;;;;;;5041509;28;20476;-61
2022/05/12 11:05:45;;;;;;;;;;;24.70;90.10;;;;;;5039510;28;19947;-60
2022/05/12 11:08:13;;;;;;;;;;;24.80;90.50;;;;;;5042373;28;20012;-60
2022/05/12 11:10:51;;;;;;;;;;;24.80;91.30;;;;;;5036916;28;20403;-58
2022/05/12 11:13:41;;;;;;;;;;;24.80;91.40;;;;;;5043436;28;19958;-61
2022/05/12 11:16:08;;;;;;;;;;;24.80;91.70;;;;;;5040575;28;19935;-61
2022/05/12 11:18:41;;;;;;;;;;;24.80;92.10;;;;;;5046090;28;20568;-60
2022/05/12 11:21:11;;;;;;;;;;;24.80;92.40;;;;;;5038774;28;19940;-59
2022/05/12 11:24:10;;;;;;;;;;;24.80;92.90;;;;;;5041583;28;19932;-61
2022/05/12 11:27:09;;;;;;;;;;;24.80;93.00;;;;;;4982355;28;21255;-60
2022/05/12 11:29:47;;;;;;;;;;;24.80;92.90;;;;;;4992125;28;19929;-61
2022/05/12 11:32:33;;;;;;;;;;;24.80;92.90;;;;;;5041432;28;19929;-60
2022/05/12 11:35:03;;;;;;;;;;;24.80;92.50;;;;;;5047780;28;19939;-61
2022/05/12 11:37:33;;;;;;;;;;;24.80;92.30;;;;;;5035610;28;20176;-58
2022/05/12 11:40:04;;;;;;;;;;;24.80;92.30;;;;;;5046292;28;19936;-58
2022/05/12 11:44:23;;;;;;;;;;;24.80;92.30;;;;;;5044119;28;19928;-58
2022/05/12 11:45:34;;;;;;;;;;;24.80;92.30;;;;;;5046196;28;19925;-62
2022/05/12 11:48:22;;;;;;;;;;;24.80;92.20;;;;;;5054217;28;20333;-61
2022/05/12 11:51:03;;;;;;;;;;;24.80;92.10;;;;;;5054855;28;19931;-59
2022/05/12 11:53:46;;;;;;;;;;;24.90;91.90;;;;;;5039516;28;19929;-61
2022/05/12 11:56:13;;;;;;;;;;;24.90;91.90;;;;;;5038865;28;19928;-62
2022/05/12 11:58:44;;;;;;;;;;;24.90;91.80;;;;;;5042160;28;19925;-59
2022/05/12 12:01:11;;;;;;;;;;;24.90;92.00;;;;;;5047581;28;19935;-61
2022/05/12 12:03:47;;;;;;;;;;;24.90;92.00;;;;;;5046413;28;20323;-59
2022/05/12 12:06:33;;;;;;;;;;;24.90;92.00;;;;;;5042176;28;19931;-59
2022/05/12 12:09:20;;;;;;;;;;;24.90;92.50;;;;;;5044094;28;20402;-57
2022/05/12 12:11:47;;;;;;;;;;;24.90;92.00;;;;;;5043795;28;19928;-57
2022/05/12 12:14:34;;;;;;;;;;;24.80;91.80;;;;;;5051230;28;20295;-59
2022/05/12 12:17:05;;;;;;;;;;;24.80;92.00;;;;;;5050102;28;19926;-60
2022/05/12 12:19:52;;;;;;;;;;;24.80;92.70;;;;;;5037974;28;19952;-58
2022/05/12 12:22:26;;;;;;;;;;;24.80;92.90;;;;;;5034600;28;19988;-60
2022/05/12 12:24:53;;;;;;;;;;;24.80;92.20;;;;;;5056417;28;20410;-59
2022/05/12 12:27:46;;;;;;;;;;;24.80;92.10;;;;;;5050826;28;19936;-56
2022/05/12 12:30:25;;;;;;;;;;;24.80;92.00;;;;;;5051893;28;20666;-59
2022/05/12 12:33:11;;;;;;;;;;;24.80;92.00;;;;;;5048183;28;19932;-57
2022/05/12 12:36:08;;;;;;;;;;;24.80;91.90;;;;;;5054734;28;19926;-59
2022/05/12 12:38:44;;;;;;;;;;;24.80;92.10;;;;;;5026449;28;19932;-57
2022/05/12 12:41:32;;;;;;;;;;;24.80;91.90;;;;;;5049162;28;19928;-60
2022/05/12 12:43:59;;;;;;;;;;;24.80;91.90;;;;;;5060289;28;19939;-57
2022/05/12 12:46:28;;;;;;;;;;;24.80;91.90;;;;;;5047254;28;19925;-58
2022/05/12 12:49:21;;;;;;;;;;;24.80;91.80;;;;;;5048405;28;19925;-56
2022/05/12 12:51:54;;;;;;;;;;;24.80;91.70;;;;;;5035366;28;19929;-57
2022/05/12 12:57:24;;;;;;;;;;;24.80;91.50;;;;;;5042697;28;19932;-58
2022/05/12 13:00:03;;;;;;;;;;;24.80;91.40;;;;;;5051544;28;19928;-60
2022/05/12 13:02:33;;;;;;;;;;;24.80;91.40;;;;;;5053738;28;20447;-56
2022/05/12 13:05:07;;;;;;;;;;;24.80;91.50;;;;;;5046557;28;19936;-57
2022/05/12 13:07:36;;;;;;;;;;;24.80;91.50;;;;;;5033498;28;19932;-58
2022/05/12 13:10:05;;;;;;;;;;;24.80;91.40;;;;;;5050449;28;19928;-60
2022/05/12 13:12:32;;;;;;;;;;;24.80;91.30;;;;;;5048785;28;19929;-60
2022/05/12 13:15:00;;;;;;;;;;;24.90;91.30;;;;;;5044825;28;19932;-61
2022/05/12 13:17:30;;;;;;;;;;;24.90;91.40;;;;;;5035374;28;19928;-60
2022/05/12 13:19:58;;;;;;;;;;;24.90;91.50;;;;;;5055343;28;19928;-58
2022/05/12 13:22:31;;;;;;;;;;;24.90;91.50;;;;;;5049377;28;19933;-58
2022/05/12 13:24:58;;;;;;;;;;;25.00;91.50;;;;;;5049059;28;20320;-58
2022/05/12 13:27:29;;;;;;;;;;;25.00;91.50;;;;;;5046208;28;21234;-59
2022/05/12 13:29:56;;;;;;;;;;;25.10;91.60;;;;;;5046559;28;19932;-58
2022/05/12 13:32:36;;;;;;;;;;;25.10;91.70;;;;;;5046825;28;19929;-61
2022/05/12 13:35:08;;;;;;;;;;;25.10;91.70;;;;;;5045889;28;20308;-59
2022/05/12 13:37:43;;;;;;;;;;;25.10;91.80;;;;;;5022843;28;19936;-57
2022/05/12 13:40:30;;;;;;;;;;;25.10;91.90;;;;;;5051560;28;20287;-61
2022/05/12 13:42:57;;;;;;;;;;;25.10;91.90;;;;;;5036780;28;19929;-59
2022/05/12 13:45:27;;;;;;;;;;;25.20;92.00;;;;;;5056293;28;20319;-59
2022/05/12 13:47:56;;;;;;;;;;;25.20;92.10;;;;;;5058774;28;20316;-57
2022/05/12 13:50:33;;;;;;;;;;;25.10;92.10;;;;;;5033317;28;19928;-57
2022/05/12 13:53:01;;;;;;;;;;;25.00;92.20;;;;;;5050325;28;19933;-57
2022/05/12 13:55:30;;;;;;;;;;;25.10;92.40;;;;;;5049594;28;20284;-57
2022/05/12 13:58:03;;;;;;;;;;;25.20;92.60;;;;;;5036305;28;19929;-58
2022/05/12 14:00:36;;;;;;;;;;;25.30;93.00;;;;;;5046259;28;19929;-55
2022/05/12 14:03:23;;;;;;;;;;;25.30;92.90;;;;;;5052735;28;20311;-59
2022/05/12 14:05:53;;;;;;;;;;;25.40;92.80;;;;;;5036124;28;20416;-62
2022/05/12 14:08:32;;;;;;;;;;;25.50;92.70;;;;;;5040555;28;19931;-62
2022/05/12 14:11:02;;;;;;;;;;;25.50;92.80;;;;;;5058279;28;19925;-57
2022/05/12 14:19:37;;;;;;;;;;;25.50;92.60;;;;;;5055927;28;20424;-60
2022/05/12 14:22:12;;;;;;;;;;;25.50;92.20;;;;;;5043612;28;19936;-58
2022/05/12 14:24:42;;;;;;;;;;;25.50;92.00;;;;;;5042320;28;19928;-60
2022/05/12 14:27:10;;;;;;;;;;;25.60;92.00;;;;;;5037499;28;19944;-62
2022/05/12 14:29:38;;;;;;;;;;;25.60;91.90;;;;;;5040722;28;19929;-63
2022/05/12 14:32:07;;;;;;;;;;;25.70;91.90;;;;;;5041525;28;19925;-58
2022/05/12 14:34:34;;;;;;;;;;;25.70;91.80;;;;;;5047467;28;19929;-59
2022/05/12 14:37:02;;;;;;;;;;;25.70;91.90;;;;;;5036358;28;19936;-59
2022/05/12 14:39:30;;;;;;;;;;;25.70;92.00;;;;;;5040065;28;19933;-58
2022/05/12 14:41:57;;;;;;;;;;;25.80;92.10;;;;;;5023385;28;19948;-57
2022/05/12 14:44:25;;;;;;;;;;;25.80;92.30;;;;;;5039197;28;19932;-60
2022/05/12 14:46:54;;;;;;;;;;;25.90;92.40;;;;;;5055041;28;20302;-60
2022/05/12 14:49:33;;;;;;;;;;;25.90;92.40;;;;;;5050772;28;19929;-60
2022/05/12 14:52:01;;;;;;;;;;;26.00;92.40;;;;;;5039534;28;20308;-60
2022/05/12 14:54:28;;;;;;;;;;;26.00;92.40;;;;;;5041294;28;19929;-57
2022/05/12 14:56:57;;;;;;;;;;;26.00;92.40;;;;;;5044973;28;20217;-60
2022/05/12 14:59:25;;;;;;;;;;;26.00;92.40;;;;;;5050191;28;19940;-60
2022/05/12 15:01:53;;;;;;;;;;;26.10;92.40;;;;;;5050814;28;20303;-59